Tisdag 2023-01-31 22:03:22 vecka 5, namnsdag Ivar, Joar, imorgon Max, Maximilian  [Huvudmeny]   minomax.se   minomax.se/synop   minomax.se/flyg   wwwinfo.se   medd.nu  -  meddelanden   kakor SYNOP-data Visa SYNOP-temperaturer och data
Land: skriv landsbeteckning, 2 bokstäver, tex. se för Sverige. Sök land Sökord: skriv sökord, eller lämna tomt så visas alla Visar SYNOP för SE- Sverige Land/ IATA Id Mätplats Temp Tid Datum region ICAO SYNOP... WMO-nr ----- ------------------------- ----- ----- ---------- ------ --- ---- -----------------... 02013 Ritsem|Akkastugan -6,3 19:00 2023-01-31 SE-BD AAXX 31181 02013 05/84 /0000 11063 21078 39226 49878 52004 60002 333 11055 21088 60005 90710 91102= 02019 Katterjakk|Lapplandia/Air -3,7 21:00 2023-01-31 SE-BD AAXX 31201 02019 27/82 /2706 11037 21052 39253 49870 52008 7001/ 333 60005 90710 91109= 02022 Abisko/Automated -3,0 19:00 2023-01-31 SE-BD AAXX 31181 02022 05570 72004 11030 21072 39387 49860 55001 60002 333 11021 21073 60005 85/27 87/39 90710 91106= 02024 Stora Sjoefallet|Vietas -6,4 19:00 2023-01-31 SE-BD AAXX 31181 02024 47/47 /2911 11064 21081 77187 333 11040 21065 90710 91116= 02029 Tarfala -7,1 19:00 2023-01-31 SE-BD AAXX 31181 02029 46/// /3007 11071 21131 38521 53004 333 11061 21089 90710 91114=
02031 Rensjoen|Rautas -3,6 19:00 2023-01-31 SE-BD AAXX 31181 02031 05/84 /3308 11036 21085 69902 333 11033 21080 60005 90710 91114= 02036 Nikkaluokta/Automated -4,3 19:00 2023-01-31 SE-BD AAXX 31181 02036 05684 22603 11043 21122 39289 49849 55000 60002 333 11019 21092 60005 82/45 90710 91106= 02038 Latnivaara|Ladnivare -16,7 19:00 2023-01-31 SE-BD AAXX 31181 02038 07/75 /3201 11167 21184 69902 7858/ 333 11102 21213 69905 90710 91102= 02044 Kiruna|Tuolluvaara/Airpor -11,2 19:00 2023-01-31 SE-BD KRN ESNQ AAXX 31181 02044 45/84 /2102 11112 21137 39293 49852 55001 333 11034 21154= 02045 Kiruna|Tuolluvaara/Geofys /// 20:00 2023-01-31 SE-BD AAXX 3119/ 02045 333 55300 40725=
02049 Gallivare|Malmberget/Priv -9,8 19:00 2023-01-31 SE-BD GEV ESNG AAXX 31181 02049 05/84 /2902 11098 21123 39416 49855 52003 60002 333 11076 21125 60005 90710 91105= 99000 Nedre Soppero /// (06:00 2022-11-02) SE-BD OOXX 02054 99000 10000 03600 ////2 26/// ///// 1//// 2//// 3//// 4//// 5//// 6//// 7//// 8//// 9//// 333 55/// ///// 58/// 02055 Naimakka|Siikavuopio -5,2 19:00 2023-01-31 SE-LL AAXX 31181 02055 05684 53106 11052 21083 60002 333 11049 21150 60005 83/49 85/58 90710 91111= 02063 Asele|Söråsele 18,9 (08:00 2022-06-02) SE-AC AAXX 02064 02063 64870 32460 10189 20178 38887 48485 82542 333 0//00 20183 50331 55068 59030 82616 85360 87080= 02064 Saittarova -4,5 19:00 2023-01-31 SE-BD AAXX 31181 02064 05/84 /3003 11045 21086 60002 333 11044 21085 60005 90710 91104=
02072 Porkalompolo|Parkalompolo -9,1 19:00 2023-01-31 SE-BD AAXX 31181 02072 05584 60000 11091 21104 39453 49835 52001 60002 333 11067 21106 60005 86/29 90710 91101= 99000 Orebro|Ekeby-Almby/Ekeby /// (09:00 2022-09-02) SE-T OOXX 02074 99000 10000 03600 ////2 26/// ///// 1//// 2//// 3//// 4//// 5//// 6//// 7//// 8//// 9//// 333 55/// ///// 58/// 02081 Karesuando/Airport -4,1 21:00 2023-01-31 SE-BD AAXX 31201 02081 27/58 /3204 11041 21051 39433 49833 52002 7717/ 333 69935 90710 91106= 99000 Lannavaara /// (10:00 2022-09-02) SE-BD OOXX 02084 99000 10000 03600 ////2 26/// ///// 1//// 2//// 3//// 4//// 5//// 6//// 7//// 8//// 9//// 333 55/// ///// 58/// 02094 Ungskar|Stenshamn /// (10:00 2022-11-02) SE- AAXX 02094 02094=
02095 Pajala|Kungsstrand -5,3 21:00 2023-01-31 SE-BD AAXX 31201 02095 27560 82902 11053 21073 39636 49838 52004 7001/ 333 60005 88/33 90710 91104= 02101 Palkem|Björkfors -14,0 21:00 2023-01-31 SE-AC AAXX 31201 02101 45584 /2401 11140 21148 39343 49905 55002 333 88/21= 02102 Stekenjokk|Stikkenjokk -8,9 19:00 2023-01-31 SE-AC AAXX 31181 02102 46/// ///// 11089 21099 333 11060 21089= 02103 Hemavan-Skorvfjalle|Portb -8,5 19:00 2023-01-31 SE-AC AAXX 31181 02103 46/// /3004 11085 21093 333 11053 21090 90710 91106= 99000 Hemavan|Portbron /// (11:00 2022-11-02) SE-AC OOXX 02104 99000 10000 03600 ////2 26/// ///// 1//// 2//// 3//// 4//// 5//// 6//// 7//// 8//// 9//// 333 55/// ///// 58///
02110 Gielas|Svallgonäs -16,0 19:00 2023-01-31 SE-AC AAXX 31181 02110 05/// /3001 11160 21178 60002 333 11030 21160 60005 90710 91102= 99000 Norraker|Saxåmon /// (12:00 2022-11-02) SE-AC OOXX 02114 99000 10000 03600 ////2 26/// ///// 1//// 2//// 3//// 4//// 5//// 6//// 7//// 8//// 9//// 333 55/// ///// 58/// 02119 Kvikkjokk Arrenjarka A|Nj -16,3 21:00 2023-01-31 SE-BD AAXX 31201 02119 27984 33202 11163 21202 39487 49880 52005 700// 333 60005 83/58 90710 91104= 02121 Mierkenis|Vuoggatjålme -4,9 19:00 2023-01-31 SE-BD AAXX 31181 02121 07/82 /3305 11049 21064 39140 49873 52003 60002 7//87 333 11036 21063 60005 90710 91108= 02124 Arjeplog|Sakkavare -19,8 21:00 2023-01-31 SE-BD AAXX 31201 02124 27982 03501 11198 21222 39356 49893 53005 700// 333 60005 90710 91101=
02126 Gunnarn|Bastuträsk/Airpor -18,0 21:00 2023-01-31 SE-AC ESPD AAXX 31201 02126 27984 01301 11180 21202 39546 49893 53002 700// 333 60005 90710 91103= 02135 Buresjoen -20,1 19:00 2023-01-31 SE-AC AAXX 31181 02135 05984 00000 11201 21224 60002 333 11108 21241 60005 90710 91101= 02141 Tjakaape|Nausta -13,1 19:00 2023-01-31 SE-BD AAXX 31181 02141 05984 02801 11131 21135 39169 49872 53003 60002 333 11093 21199 60005 91002 90710 91103= 99000 Abraur|Suddesjaur /// (16:00 2022-10-02) SE-BD OOXX 02144 99000 10000 03600 ////2 26/// ///// 1//// 2//// 3//// 4//// 5//// 6//// 7//// 8//// 9//// 333 55/// ///// 58/// 02147 Malaa-Braennan|Släppträsk -11,7 19:00 2023-01-31 SE-AC AAXX 31181 02147 05/84 /0000 11117 21130 60002 333 11072 21140 60005 90710 91102=
02149 Arvidsjaur|Fjällbonäs -16,8 19:00 2023-01-31 SE-BD AAXX 31181 02149 07984 03201 11168 21189 39405 49880 50002 69922 72487 333 11098 21168 69905 90710 91103= 02151 Jokkmokk|Koskats/Jokkmokk -12,6 21:00 2023-01-31 SE-BD AAXX 31201 02151 25784 80000 11126 21138 39530 49870 53004 333 60005 88/50 91001 90710 91102= 02154 Vidsel|Nästräsk/AFB -18,2 19:00 2023-01-31 SE-BD ESPE AAXX 31181 02154 07984 02801 11182 21196 39648 49877 51004 60002 7//87 333 11080 21200 60005 91001 90710 91102= 02161 Nattavaara -12,2 19:00 2023-01-31 SE-BD AAXX 31181 02161 05684 32902 11122 21161 60002 333 11097 21137 60005 83/44 83/50 90710 91105= 99000 Palkem|Pålkem /// (18:00 2022-10-02) SE-BD OOXX 02164 99000 10000 03600 ////2 26/// ///// 1//// 2//// 3//// 4//// 5//// 6//// 7//// 8//// 9//// 333 55/// ///// 58///
02171 Boden|Avaheden/Army Air B -11,3 19:00 2023-01-31 SE-BD ESPG AAXX 31181 02171 05984 02602 11113 21135 39827 49859 50000 60002 333 11069 21115 60005 91003 90710 91104= 02173 Aelvsbyn|Högheden -20,6 19:00 2023-01-31 SE-BD AAXX 31181 02173 05984 01201 11206 21233 60002 333 11076 21208 60005 90710 91102= 02174 Lakatraesk|Lakaträsk -20,0 19:00 2023-01-31 SE-BD AAXX 31181 02174 05984 00000 11200 21251 39630 49865 50002 69912 333 11110 21200 60005 90710 91101= 02176 Ronnskar|Jävrebodarna/Aut -7,8 19:00 2023-01-31 SE- AAXX 31181 02176 05984 02904 11078 21122 60002 333 11032 21079 60005 90710 91108= 02181 Svartbyn|Mjölan/Automated -14,7 19:00 2023-01-31 SE-BD AAXX 31181 02181 07984 01601 11147 21165 39771 49848 52002 69902 333 11042 21159 60005 90710 91102=
02183 Lulea Sol|Kallax /// 20:00 2023-01-31 SE-BD AAXX 3119/ 02183 333 55300 20001= 02184 Paharova -10,3 19:00 2023-01-31 SE-BD AAXX 31181 02184 05/84 /0000 11103 21115 39565 49847 52002 60002 333 11080 21127 60005 90710 91102= 02186 Kallax|Svartöstaden/Lulea -13,8 21:00 2023-01-31 SE-BD LLA ESPA AAXX 31201 02186 25983 03502 11138 21150 39835 49860 51004 80000 333 60005 91002 90710 91102= 02188 Rodkallen|Storbrändön/Aut -4,8 19:00 2023-01-31 SE- AAXX 31181 02188 05984 02906 11048 21083 60002 333 11034 21053 60005 90710 91107= 02191 Storoen|Storön -10,9 19:00 2023-01-31 SE- AAXX 31181 02191 05984 02906 11109 21128 39844 49850 54001 60002 333 11036 21133 60005 90710 91107=
02197 Haparanda|Sundholmen/Hapa -10,8 21:00 2023-01-31 SE-BD AAXX 31201 02197 27/84 /2301 11108 21119 39830 49849 53008 700// 333 60005 90710 91102= 02199 Ylinenjaervi|Ylinenjärvi -13,4 19:00 2023-01-31 SE-BD AAXX 31181 02199 05584 80000 11134 21153 60002 333 11047 21144 60005 88/32 90710 91101= 02202 Tornetrask Lake|Laimoluok /// (00:00 2022-12-12) SE-BD AAXX 11234 02202 11049 21058 30018 40091 52003 80/// 333 55300 20000 60005 91003 90710 91104= 99000 Nikkaluokta /// (22:00 2022-10-02) SE-BD OOXX 02204 99000 10000 03600 ////2 26/// ///// 1//// 2//// 3//// 4//// 5//// 6//// 7//// 8//// 9//// 333 55/// ///// 58/// 02205 Storlien Sol /// 20:00 2023-01-31 SE-Z AAXX 3119/ 02205 NIL=
02207 Storlien-Visjovalen|Visjö -14,0 21:00 2023-01-31 SE-Z AAXX 31201 02207 27984 01301 11140 21154 39200 49913 57001 700// 333 60005 90710 91102= 02209 Sylarna|Tjallingen/Automa -8,8 19:00 2023-01-31 SE-Z AAXX 31181 02209 46/// /2002 11088 21174 333 11059 21105 90710 91104= 02210 Blahammaren A|Blåhammaren -10,9 19:00 2023-01-31 SE-Z AAXX 31181 02210 46/// ///// 11109 21121 333 11062 21109 90710 91113= 99000 Trillevallen|Sefrivatn /// (23:00 2022-10-02) SE-18 OOXX 02214 99000 10000 03600 ////2 26/// ///// 1//// 2//// 3//// 4//// 5//// 6//// 7//// 8//// 9//// 333 55/// ///// 58/// 02219 Gaddede A|Gussvattnet -4,2 21:00 2023-01-31 SE-Z AAXX 31201 02219 27/33 /2902 11042 21049 39228 49892 52004 72487 333 69915 90710 91104=
02221 Korsvattnet|Mjölkvattnet -4,8 19:00 2023-01-31 SE-Z AAXX 31181 02221 07/84 /3207 11048 21076 60002 333 11038 21067 60005 90710 91110= 99000 Follinge-Vagskalet|Vägskä /// (23:00 2022-11-02) SE-Z OOXX 02224 99000 10000 03600 ////2 26/// ///// 1//// 2//// 3//// 4//// 5//// 6//// 7//// 8//// 9//// 333 55/// ///// 58/// 02226 Ostersund-Åre Airport -5,8 21:00 2023-01-31 SE-Z OSD ESNZ AAXX 31201 02226 45/84 /2503 11058 21068 39444 49900 55001= 02229 Östersund Sol|Västerhus /// 20:00 2023-01-31 SE-Z AAXX 3119/ 02229 NIL= 02230 Gubbhögen/Högbynäs -4,7 19:00 2023-01-31 SE-Z AAXX 31181 02230 07/61 /3101 11047 21053 60002 7//82 333 11003 21054 60005 90710 91102=
02231 Föllinge -6,6 19:00 2023-01-31 SE-Z AAXX 31181 02231 05984 02401 11066 21079 60002 333 11004 21069 60005 90710 91103= 99000 Stromsund/Näsviken /// (00:00 2022-11-03) SE-Z OOXX 02234 99000 10000 03600 ////2 26/// ///// 1//// 2//// 3//// 4//// 5//// 6//// 7//// 8//// 9//// 333 55/// ///// 58/// 02236 Hallhåxåsen -5,2 19:00 2023-01-31 SE-Z AAXX 31181 02236 05584 62702 11052 21065 39433 49889 58003 69902 333 11004 21054 60005 86/20 90710 91102= 02242 Hoting|Andersnäset -11,3 19:00 2023-01-31 SE-Z AAXX 31181 02242 07/03 /0000 11113 21124 69902 73332 333 11004 21113 60005 90710 91101= 02243 Krångede|Bölen -6,3 21:00 2023-01-31 SE-Y AAXX 31201 02243 27/84 /0000 11063 21086 39623 49893 53004 7001/ 333 60005 90710 91101=
02245 Vilhelmina|Dalasjö/Automa -17,4 19:00 2023-01-31 SE-AC AAXX 31181 02245 07/// /0000 11174 21193 39463 49897 52002 69902 7//83 333 11067 21178 60005 90710 91101= 02247 Krangede|Döviken/Automate -2,8 19:00 2023-01-31 SE-Z AAXX 31181 02247 055// 73001 11028 21071 39670 49894 57004 60002 333 10014 21058 60005 87/27 90710 91103= 02254 Åsele/Söråsele -14,9 19:00 2023-01-31 SE-AC AAXX 31181 02254 07002 30000 11149 21164 39510 49893 52002 69902 78583 333 11033 21155 69905 83/01 90710 91101= 02260 Västmarkum|Östmarkum -7,0 19:00 2023-01-31 SE-Y AAXX 31181 02260 27/82 /2701 11070 21077 39713 49889 50001 7//82 333 10003 21072 60005 90710 91101= 02261 Lycksele|Hälsingfors -17,2 19:00 2023-01-31 SE-AC AAXX 31181 02261 05/84 /3201 11172 21190 39621 49885 55001 69922 333 11106 21181 60005 90710 91101=
02263 Fredrika|Fristad -11,8 19:00 2023-01-31 SE-AC AAXX 31181 02263 07007 70000 11118 21126 60002 73132 333 11047 21118 60005 87/01 90710 91102= 02265 Hemling -13,6 19:00 2023-01-31 SE-Y AAXX 31181 02265 07281 40000 11136 21151 39663 49891 52005 60002 333 11022 21143 60005 84/06 90710 91102= 02267 Örnskoldsvik/Airport -7,5 19:00 2023-01-31 SE-Y OER ESNO AAXX 31181 02267 47142 /3002 11075 21075 39751 49885 55001 731// 333 11018 21092 82/03= 02269 Skagsudde|Skeppsmalen/Aut -3,2 21:00 2023-01-31 SE-Y AAXX 31201 02269 27967 03003 11032 21051 700// 333 60005 90710 91104= 02271 Norsjö|Finnäs -13,5 19:00 2023-01-31 SE-AC AAXX 31181 02271 05/84 /3401 11135 21149 39493 49877 54000 69922 333 11082 21162 60005 90710 91103=
02282 Petisträsk -18,2 19:00 2023-01-31 SE-AC AAXX 31181 02282 05984 02902 11182 21200 60002 333 11082 21204 60005 90710 91103= 02283 Umeå Robacksdalen|Teg /// 20:00 2023-01-31 SE-AC AAXX 3119/ 02283 333 55300 20002 40716= 02284 Järnäsklubb -3,1 19:00 2023-01-31 SE-AC AAXX 31181 02284 05284 32802 11031 21036 39874 49883 52001 60002 333 11004 21067 60005 83/04 83/32 90710 91105= 02286 Umeå/Airport -16,1 19:00 2023-01-31 SE-AC UME ESNU AAXX 31181 02286 45/84 /0000 11161 21181 39873 49882 53002 333 11038 21170= 02287 Holmön -4,7 21:00 2023-01-31 SE- AAXX 31201 02287 27984 02603 11047 21056 39868 49878 50003 700// 333 60005 90710 91105=
02293 Skellefteå/Airport -11,5 19:00 2023-01-31 SE-AC SFT ESNS AAXX 31181 02293 45/67 /2803 11115 21120 39810 49870 55003 333 11054 21117= 02297 Bjuröklubb -8,8 21:00 2023-01-31 SE- AAXX 31201 02297 27984 02704 11088 21100 39823 49869 53003 700// 333 60005 90710 91105= 02307 Idre|Idre Fjäll/Automated 2,8 (08:00 2022-09-21) SE-W AAXX 21061 02307 46/// /3403 10028 21021 333 10045 20024 90710 91103= 02308 Tannas|Tännäs/Automated -11,3 21:00 2023-01-31 SE-Z AAXX 31201 02308 27984 00000 11113 21148 39039 49910 55006 700// 333 60005 90710 91101= 02316 Särna -12,4 19:00 2023-01-31 SE-W AAXX 31181 02316 46/// ///// 11124 333 11030 21124=
02317 Dravagen -15,3 19:00 2023-01-31 SE-Z AAXX 31181 02317 05984 02501 11153 21169 60002 333 11028 21168 60005 90710 91102= 02319 Börtnan -13,7 19:00 2023-01-31 SE-Z AAXX 31181 02319 07/83 /3001 11137 21170 69902 72482 333 11017 21139 69905 90710 91102= 02321 Älvdalen|Rot -10,2 19:00 2023-01-31 SE-W AAXX 31181 02321 05884 20000 11102 21113 39603 49916 57011 60002 333 11021 21106 60005 82/57 90710 91102= 02325 Klövsjöhöjden|Sångbäcken -7,3 19:00 2023-01-31 SE-Z AAXX 31181 02325 05/84 /2604 11073 21109 38946 49899 57009 60002 333 11052 21083 60005 90710 91106= 02327 Sveg|Sundsätt/Sveg A -13,5 21:00 2023-01-31 SE-Z AAXX 31201 02327 27/84 /2701 11135 21168 39472 49916 55000 700// 333 60005 90710 91101=
02329 Hamra -6,5 19:00 2023-01-31 SE-X AAXX 31181 02329 05/84 /2601 11065 21116 39354 49905 58013 60002 333 11011 21080 60005 90710 91103= 02331 Hunge -10,1 19:00 2023-01-31 SE-Z AAXX 31181 02331 059// 00301 11101 21109 60002 333 11002 21105 60005 90710 91102= 02338 Edsbyn|Gammelhomna/Automa -6,5 19:00 2023-01-31 SE-X AAXX 31181 02338 05984 00000 11065 21087 39682 49910 57013 60002 333 10014 21077 60005 90710 91103= 02343 Torpshammar|Rombäck -6,2 19:00 2023-01-31 SE-Y AAXX 31181 02343 05984 03401 11062 21098 39775 49899 58005 60002 333 10011 21070 60005 90710 91102= 02347 Delsbo|Åkre -4,9 19:00 2023-01-31 SE-X AAXX 31181 02347 05984 00000 11049 21105 39815 49904 57010 60002 333 10022 21050 60005 90710 91102=
02355 Kuggören|Bålsön/Automated -1,4 21:00 2023-01-31 SE- AAXX 31201 02355 27984 02703 11014 21085 39889 49901 55002 700// 333 60005 90710 91105= 02366 Sundsvall|Midlanda/Härnös -6,7 21:00 2023-01-31 SE-Y SDL ESNN AAXX 31201 02366 45/84 /0101 11067 21079 39891 49897 55001= 02368 Brämön/Sanna/Automated -0,3 19:00 2023-01-31 SE- AAXX 31181 02368 05684 62604 11003 21070 60002 333 10025 21003 60005 86/35 90710 91105= 02382 Lungö|Uddhamn/Automated -0,2 19:00 2023-01-31 SE- AAXX 31181 02382 05/84 /2802 11002 21043 60002 333 10027 21002 60005 90710 91103= 02403 Naven|Skaven 0,8 19:00 2023-01-31 SE- AAXX 31181 02403 07447 91502 10008 20002 69932 77187 333 10029 20001 69925 89/15 90710 91104=
02407 Malung A|Grimsmyrheden -5,1 21:00 2023-01-31 SE-W AAXX 31201 02407 27567 73301 11051 21101 39536 49907 57010 700// 333 60005 87/31 90710 91102= 02408 Blomskog|Vammerviken/Auto -0,3 19:00 2023-01-31 SE- AAXX 31181 02408 07227 80000 11003 21009 39697 49906 56021 60022 74174 333 10016 21044 69955 88/04 90710 91102= 02411 Arvika|Långvak -0,9 19:00 2023-01-31 SE-S AAXX 31181 02411 27638 93601 11009 21028 39829 49911 57019 78587 333 10023 21061 69905 89/34 90710 91101= 02417 Pålgrunden|Tallbacken /// 19:00 2023-01-31 SE-S AAXX 31181 02417 46/// /1204 333 90710 91105= 02418 Karlstad/Airport -1,4 21:00 2023-01-31 SE-S KSD ESSQ AAXX 31201 02418 47139 /0701 11014 21020 39772 49903 56013 771// 333 88/03=
02419 Sookojan|Nolgård /// 20:00 2023-01-31 SE-S AAXX 3119/ 02419 333 55300 20003= 02423 Sunne|Ulvsby -1,5 19:00 2023-01-31 SE-S AAXX 31181 02423 07584 80000 11015 21036 60002 7//72 333 10019 21045 60005 81/20 85/35 88/44 90710 91101= 02426 Gustavsfors -2,0 19:00 2023-01-31 SE-S AAXX 31181 02426 05582 80000 11020 21055 39684 49914 56018 60002 333 10011 21051 60005 88/24 90710 91100= 02429 Daglösen|Gränäset -1,4 19:00 2023-01-31 SE-US AAXX 31181 02429 07363 30000 11014 21048 69922 7717/ 333 10017 21038 69925 81/09 83/22 90710 91100= 02431 Kloten -3,8 19:00 2023-01-31 SE-T AAXX 31181 02431 05684 80000 11038 21077 39569 49916 57021 60002 333 11009 21043 60005 88/45 90710 91101=
02432 Orebro|Tredingskullen/Aut -0,8 19:00 2023-01-31 SE-T AAXX 31181 02432 45683 /2002 11008 21031 39848 49918 56022 333 10035 21013 88/36= 02435 Borlänge|Romme/AFB -5,7 21:00 2023-01-31 SE-W BLE ESSD AAXX 31201 02435 45784 /2602 11057 21084 39717 49906 56010 333 81/56= 02437 Aspa /// 20:00 2023-01-31 SE-U ESQO AAXX 3119/ 02437 333 55300= 02440 Åmot -8,2 21:00 2023-01-31 SE-X AAXX 31201 02440 27984 03001 11082 21106 700// 333 60005 90710 91102= 02441 Mora|Vinäs -5,6 19:00 2023-01-31 SE-W AAXX 31181 02441 05984 02601 11056 21093 39667 49909 58016 60002 333 11006 21060 60005 90710 91103=
02443 Enköping/Åkerby -5,6 19:00 2023-01-31 SE-C AAXX 31181 02443 05971 00000 11056 21063 39890 49920 58022 60002 333 10020 21058 60005 91001 90710 91101= 02449 Eskilstuna|Flacksta/AB -5,0 19:00 2023-01-31 SE-D EKT ESSU AAXX 31181 02449 25880 20000 11050 21082 39902 49918 58024 333 10018 21057 60005 82/57 90710 91102= 02450 Eggegrund|Långsand -0,4 19:00 2023-01-31 SE- AAXX 31181 02450 46/// /2406 11004 21057 333 10027 21004 90710 91107= 02452 Kilsbergen-Suttarboda|Sve -1,5 21:00 2023-01-31 SE-T AAXX 31201 02452 27558 82901 11015 21038 7717/ 333 69905 88/20 90710 91102= 02453 Gävle|Varva/Automated -1,7 19:00 2023-01-31 SE-X AAXX 31181 02453 05984 02201 11017 21079 39887 49909 58013 60002 333 10036 21017 60005 90710 91104=
02456 Films Kyrkby|Kyrkbyn -3,9 21:00 2023-01-31 SE-C AAXX 31201 02456 27984 02201 11039 21073 39868 49911 55009 700// 333 60005 90710 91102= 02458 Uppsala|Ärna/AFB -3,1 19:00 2023-01-31 SE-C ESCM AAXX 31181 02458 05989 00000 11031 21066 39893 49919 58019 60002 333 10027 21033 60005 91001 90710 91104= 02460 Stockholm|Kimsta/Arlanda -2,7 19:00 2023-01-31 SE-AB ARN ESSA AAXX 31181 02460 45/84 /2001 11027 21070 39865 49917 57021 333 10013 21028= 02462 Uppsala Universitet|Almtu -2,0 19:00 2023-01-31 SE-C AAXX 31181 02462 06/// /2001 11020 21050 39886 49924 60002 333 10027 21021 60005 90710 91102= 02464 Stockholm/Bromma -4,1 21:00 2023-01-31 SE-AB BMA ESSB AAXX 31201 02464 45/84 /0000 11041 21063 39897 49915 57015=
02468 Stora Spånsberget|Spånsfä -6,6 19:00 2023-01-31 SE-W AAXX 31181 02468 05/84 /0501 11066 21128 60002 333 11022 21067 60005 90710 91103= 02469 Tullinge|Eklundshov -6,9 21:00 2023-01-31 SE-AB AAXX 31201 02469 27/84 /1301 11069 21080 700// 333 60005 90710 91101= 02476 Floda|Stav/Automated -3,1 19:00 2023-01-31 SE-D AAXX 31181 02476 05984 01201 11031 21068 39881 49922 58025 60002 333 10029 21037 60005 90710 91102= 02481 Sala|Isätra -3,3 19:00 2023-01-31 SE-U AAXX 31181 02481 05984 02001 11033 21067 39845 49916 58020 60002 333 10028 21036 60005 90710 91102= 02482 Kerstinbo|Sälja -3,5 19:00 2023-01-31 SE-X AAXX 31181 02482 05984 02601 11035 21076 39842 49913 58017 60002 333 10028 21037 60005 90710 91102=
02483 Stockholm Kth|Stocksund/A /// 20:00 2023-01-31 SE-AB AAXX 3119/ 02483 333 55300= 02484 Stockholm|Stocksund/Obser -0,3 19:00 2023-01-31 SE-AB AAXX 31181 02484 46/// ///// 11003 21062 39869 49924 57021 333 10020 21004= 02485 Stockholm|Stocksund/Autom 0,3 (07:00 2019-10-30) SE-AB AAXX 30061 02485 12/70 82701 10003 21030 30205 40271 60002 333 10037 20007= 02486 Adelsö/Hovgården -3,6 19:00 2023-01-31 SE- AAXX 31181 02486 05/84 /2102 11036 21060 60002 333 10026 21046 60005 90710 91103= 02487 Stavsnäs|Eriksberg/Automa -1,5 19:00 2023-01-31 SE- AAXX 31181 02487 46/// /2301 11015 21066 333 10024 21015 90710 91104=
02488 Örskar|Askskär/Automated -0,6 19:00 2023-01-31 SE- AAXX 31181 02488 05984 02305 11006 21057 39901 49913 58009 60002 333 10020 21007 60005 90710 91107= 02489 Hårsfjarden|Berga -2,5 19:00 2023-01-31 SE- AAXX 31181 02489 05984 00000 11025 21048 39924 49929 57019 60002 333 10027 21031 60005 91002 90710 91102= 02490 Svanberga -3,1 19:00 2023-01-31 SE-AB AAXX 31181 02490 05984 00000 11031 21061 39900 49920 57017 60002 333 10028 21033 60005 90710 91102= 02493 Söderarm|Österäng 0,4 19:00 2023-01-31 SE- AAXX 31181 02493 45984 02605 10004 21054 333 10023 20004 90710 91110= 02496 Svenska Högarna|Kudoxa/Li 9,8 (08:00 2021-06-01) SE- AAXX 01060 02496 02984 00507 10098 333 10100 20081 31/// 70000=
02498 Svenska Högarna A|Kudoxa 0,8 21:00 2023-01-31 SE- AAXX 31201 02498 27983 02506 10008 21041 39901 49918 56010 700// 333 60005 90710 91108= 02500 Nordkoster|Nord-Koster 3,8 21:00 2023-01-31 SE- AAXX 31201 02500 27968 02609 10038 20013 39865 49907 55005 700// 333 60005 90710 91113= 02501 Vaderöarna|Sjöviken 4,6 19:00 2023-01-31 SE- AAXX 31181 02501 46/// /2715 10046 20010 39872 49901 56018 333 10046 20029 90710 91119= 02505 Måseskar|Käringön 5,0 19:00 2023-01-31 SE- AAXX 31181 02505 47957 02815 10050 20014 71086 333 10051 20035 90710 91120= 02513 Göteborg|Torp/Automated 4,9 21:00 2023-01-31 SE- AAXX 31201 02513 27/66 /2806 10049 20009 39931 49935 53006 700// 333 60005 90710 91114=
02516 Vinga|Fotö/Lighthouse 5,1 19:00 2023-01-31 SE- AAXX 31181 02516 07963 02813 10051 20018 39909 49932 58002 60012 7//86 333 10052 20030 60005 90710 91119= 02518 Nidingen|Vässingsö/Lighth 4,9 21:00 2023-01-31 SE- AAXX 31201 02518 469// 42814 10049 20019 333 84/60 90710 91118= 02520 Såtenas|Såtenäs Villastad 1,9 21:00 2023-01-31 SE- AAXX 31201 02520 27489 82604 10019 20018 39844 49911 55001 70076 333 60005 82/14 84/18 88/61 91005 90710 91108= 02526 Göteborg/Landvetter 2,7 19:00 2023-01-31 SE- GOT ESGG AAXX 31181 02526 45472 /2706 10027 20012 39741 49928 55004 333 10027 21012 88/13= 02536 Rångedala|Vevelhult/Autom 0,5 19:00 2023-01-31 SE- AAXX 31181 02536 07241 82604 10005 20004 39559 49919 56018 60032 77187 333 10010 21023 69925 88/04 90710 91108=
02539 Ullared|Spetsebo 2,7 19:00 2023-01-31 SE-N AAXX 31181 02539 07360 82702 10027 20021 60072 72386 333 10042 21001 60005 86/06 88/08 90710 91110= 02540 Kroppefjäll-Grånan|Årbol 0,5 19:00 2023-01-31 SE- AAXX 31181 02540 07282 82802 10005 20003 60022 72487 333 10023 21024 69925 88/04 90710 91103= 02542 Hallum|Hällum 0,3 19:00 2023-01-31 SE- AAXX 31181 02542 07117 82203 10003 21013 39823 49910 56026 60022 77187 333 10027 21030 60015 82/03 86/05 88/12 90710 91103 02544 Karlsborg|Gräshult 1,7 19:00 2023-01-31 SE- AAXX 31181 02544 07285 81603 10017 20014 39799 49914 56034 69922 7516/ 333 10027 21002 60005 86/06 88/09 91004 90710 91104 02545 Axstal|Hanken 2,0 19:00 2023-01-31 SE- AAXX 31181 02545 463// 81605 10020 39808 49916 56031 333 10027 20003 88/08 91006 90710 91106=
02546 Gardsjö|Korterud -0,2 19:00 2023-01-31 SE-T AAXX 31181 02546 05481 81301 11002 21019 39655 49913 57029 60002 333 10016 21013 60005 88/12 88/14 90710 91102= 02548 Visingsö|Ed 1,9 19:00 2023-01-31 SE-F AAXX 31181 02548 07/78 /1603 10019 21003 69922 78186 333 10033 20004 69925 90710 91105= 02549 Tomtabacken|Stora Åkerhul -0,1 19:00 2023-01-31 SE-F AAXX 31181 02549 07206 92102 11001 21010 60022 77287 333 10001 21033 60025 89/05 90710 91104= 02550 Jönkoping/Airport 1,1 21:00 2023-01-31 SE-F JKG ESGJ AAXX 31201 02550 47450 /2605 10011 20011 39639 49912 55008 767// 333 89/11= 02552 Malexander|Mo 0,4 19:00 2023-01-31 SE-E AAXX 31181 02552 07250 81502 10004 21014 69912 71076 333 10023 21012 60005 88/04 90710 91103=
02554 Kettstaka|Hulta -0,2 19:00 2023-01-31 SE-E AAXX 31181 02554 05280 81601 11002 21028 60002 333 10017 21005 60005 88/03 90710 91104= 02556 Hagshult|Hemmershult/AFB 0,4 19:00 2023-01-31 SE-F ESMV AAXX 31181 02556 07364 82403 10004 20004 39720 49927 56032 60022 77485 333 10022 21046 69995 84/07 85/14 88/18 91005 90710 02557 Horn|Äleby 1,2 19:00 2023-01-31 SE-E AAXX 31181 02557 05383 81602 10012 21016 39811 49923 58036 60002 333 10032 21014 60005 88/09 90710 91103= 02558 Kolmarden-Strömsfors|Strö -1,5 19:00 2023-01-31 SE-E AAXX 31181 02558 05482 21201 11015 21041 39731 49920 58027 60002 333 10021 21021 60005 82/15 90710 91102= 02559 Gladhammar|Ringsbo 1,8 19:00 2023-01-31 SE-H AAXX 31181 02559 07/84 /1702 10018 21004 60002 72382 333 10034 21003 60005 90710 91104=
02561 Kvarn|Prästtomta /// 19:00 2023-01-31 SE-E AAXX 31181 02561 NIL= 02562 Linköping|Jägarvallen/Mal 0,5 21:00 2023-01-31 SE-E AAXX 31201 02562 27456 81502 10005 21004 39794 49909 56023 7714/ 333 69905 83/17 85/49 88/56 91002 90710 91103= 02563 Harstena|Missjö 0,9 21:00 2023-01-31 SE- AAXX 31201 02563 27584 52302 10009 21009 39887 49909 57028 700// 333 60005 85/26 90710 91103= 02565 Hultsfred|Målilla/AFB 0,4 21:00 2023-01-31 SE-H HLF ESSF AAXX 31201 02565 27/16 92102 10004 20002 39793 49912 56027 77187 333 60025 89/09 90710 91104= 02567 Landsort 2,2 19:00 2023-01-31 SE- AAXX 31181 02567 05584 62405 10022 21026 39907 49931 56022 60002 333 10026 20010 60005 86/32 90710 91107=
02570 Norrköping|Östra Eneby/Br /// (19:00 2020-02-28) SE-E AAXX 28181 02570 10804 10368 20196 30032 40097 60001 81100 333 56100 59005 60007 81827= 02574 Norrköping|Fiskeby -0,8 19:00 2023-01-31 SE-E AAXX 31181 02574 05675 71201 11008 21040 39869 49920 58028 60002 333 10035 21014 60005 82/48 87/56 90710 91102= 02575 Ölandsnorraudde|Nabbelund 2,1 19:00 2023-01-31 SE- AAXX 31181 02575 07676 81904 10021 20003 39931 49936 58036 69902 72386 333 10035 20014 69905 86/34 88/57 90710 91107= 02587 Fårösund-Ar 0,4 19:00 2023-01-31 SE- AAXX 31181 02587 05583 82003 10004 21025 60002 333 10032 21002 60005 85/28 88/64 90710 91105= 02589 Gotska Sandön|Lauters 1,5 19:00 2023-01-31 SE- AAXX 31181 02589 05984 02605 10015 21040 39915 49936 58021 60002 333 10032 20013 60005 90710 91109=
02590 Visby/Airport 1,8 21:00 2023-01-31 SE-I VBY ESSV AAXX 31201 02590 45382 /1502 10018 20008 39858 49919 58034 333 87/07 88/11= 02598 Östergarnsholm|Katthammar 2,4 19:00 2023-01-31 SE- AAXX 31181 02598 46/// /2106 10024 20006 333 10039 20007 90710 91109= 02604 Halmstad|Karlsro/AFB 3,6 19:00 2023-01-31 SE-N HAD ESMT AAXX 31181 02604 45473 /2712 10036 20019 39923 49961 55000 333 10051 20018 83/15 85/18 88/22= 02605 Hallands|Kalvskärslid/Vad 3,9 19:00 2023-01-31 SE- AAXX 31181 02605 07457 52714 10039 21008 60032 72382 333 10051 20029 69905 83/19 85/25 90710 91119= 02606 Kullen|Mölle/Lighthouse /// (01:00 2023-01-18) SE- AAXX 18004 02606 11015 21033 39797 49944 51007 60001 80/// 333 55/// 20297 55300 20000 60005 91008 90710 91108=
02607 Ängelholm|Barkåkra/AFB|F- 3,8 19:00 2023-01-31 SE- ESDB AAXX 31181 02607 47470 /2710 10038 20018 39948 49971 56006 722// 333 10059 20022 87/17 88/50= 02611 Helsingborg|Västra Ramlös 3,8 19:00 2023-01-31 SE- AAXX 31181 02611 07/76 /2606 10038 20013 39927 49981 55001 60032 72386 333 10060 20018 69905 90710 91113= 02615 Falsterbo|Falsterbovång/F 4,0 21:00 2023-01-31 SE- AAXX 31201 02615 27580 62916 10040 20013 30001 40005 51005 700// 333 60005 81/26 86/66 90710 91121= 02616 Falsterbo|Falsterbovång/L 13,9 (08:00 2021-06-01) SE- AAXX 01060 02616 01/57 73504 10139 20126 30191 40197 53003 71022 85032 333 10171 20129 30/// 70000 85364 87258= 02618 Torup|Torpup|Tranabo/Torp 3,0 21:00 2023-01-31 SE-N AAXX 31201 02618 27/61 /2706 10030 20019 39783 49946 52002 700// 333 60005 90710 91114=
02622 Ljungby|Hovdinge 1,5 19:00 2023-01-31 SE-G AAXX 31181 02622 07371 82503 10015 20011 60042 76186 333 10026 21007 69935 88/07 90710 91109= 02623 Hörby|Slagtofta 3,0 19:00 2023-01-31 SE- AAXX 31181 02623 07464 82706 10030 20013 60032 78186 333 10054 20004 69985 88/14 90710 91112= 02625 Skillinge|Gislövhammar/Au 4,0 19:00 2023-01-31 SE- AAXX 31181 02625 07983 02909 10040 20028 39967 49974 55021 60032 72386 333 10057 20004 69985 90710 91118= 02628 Hano|Hanö/Automated 4,4 19:00 2023-01-31 SE- AAXX 31181 02628 07457 82814 10044 20041 60022 78186 333 10047 20014 69985 83/11 85/14 88/18 90710 91119= 02629 Hästveda|Hästveda 2,4 19:00 2023-01-31 SE- AAXX 31181 02629 07356 82805 10024 20024 39833 49958 55020 60042 76185 333 10045 20001 60015 87/09 88/17 91010 90710 91113
02632 Utklippan|Stenshamn 4,4 19:00 2023-01-31 SE- AAXX 31181 02632 46/// /2708 10044 20041 333 10051 20032 90710 91112= 02635 Malmö|Husie/Automated 4,0 21:00 2023-01-31 SE- AAXX 31201 02635 27/74 /2907 10040 20009 72382 333 60005 90710 91114= 02636 Malmö|Beddinge Läge/Sturu 3,7 19:00 2023-01-31 SE- MMX ESMS AAXX 31181 02636 47475 /2809 10037 20010 39904 49992 55006 722// 333 10058 20010 85/19 87/28= 02644 Ölandssödraudde|Ottenby/A 4,7 19:00 2023-01-31 SE- AAXX 31181 02644 07368 72409 10047 20042 39938 49941 58054 69932 72386 333 10047 20014 60005 84/08 86/11 87/60 90710 91113 02648 Växjö|Telestad 0,4 19:00 2023-01-31 SE-G AAXX 31181 02648 07/13 /2503 10004 20001 39689 49933 56037 60042 77187 333 10017 21013 60045 90710 91107=
02661 Kosta|Lövsjö 1,0 19:00 2023-01-31 SE-G AAXX 31181 02661 07135 82203 10010 20008 39654 49933 56044 60012 78187 333 10014 21025 69915 88/02 91006 90710 91106= 02664 Ronneby|Häggatorp/AFB 2,9 21:00 2023-01-31 SE-K RNB ESDF AAXX 31201 02664 27474 82705 10029 20024 39872 49943 55014 70085 333 60005 88/12 91011 90710 91112= 02667 Söderstjerna|Drottningskä 4,7 19:00 2023-01-31 SE- AAXX 31181 02667 07373 82507 10047 20040 39936 49939 58051 60012 78285 333 10050 20013 60015 82/08 84/22 85/29 91012 90710 02670 Kalmar|Elverslösa/Airport 2,7 19:00 2023-01-31 SE-H ESDC AAXX 31181 02670 47283 /1802 10027 20026 39924 49931 58055 723// 333 10037 21002 81/04 83/06 85/08 88/09= 02679 Hoburg|Burge/Hoburg A 3,3 21:00 2023-01-31 SE-I AAXX 31201 02679 27267 81904 10033 20031 39872 49916 58050 72386 333 69955 88/05 90710 91108=
(205 rader visades) Du kan lägga till id-beteckningen först på raden i valfri Lista 1 - 5 [top] ↕°C [1] [2] [3] [4] [5] ??? LISTOR 00-nr NOT MEDD MT METAR SYNOP SE SE-AB SE-C SE-D SE-E SE-F SE-G SE-H SE-I SE-K SE-M SE-N SE-O SE-P SE-T SE-U SE-W SE-X SE-Y SE-Z SE-AC SE-BD rådata flyg flyg_osd